Date,TemperatureHighF,TemperatureAvgF,TemperatureLowF,DewpointHighF,DewpointAvgF,DewpointLowF,HumidityHigh,HumidityAvg,HumidityLow,PressureMaxIn,PressureMinIn,WindSpeedMaxMPH,WindSpeedAvgMPH,GustSpeedMaxMPH,PrecipitationSumIn
2012-2-27,22,18,15,8,7,5,68,61,53,30.39,30.33,0,0,0,0.00
2012-2-28,36,28,16,29,16,7,97,64,40,30.36,29.85,0,0,0,0.00
2012-2-29,40,32,29,35,30,24,97,90,63,29.85,29.32,0,0,0,0.00
2012-3-1,40,31,28,27,23,19,87,73,45,29.77,29.53,0,0,0,0.00
2012-3-2,30,5,26,27,-79,-100,88,15,87,29.77,29.44,0,0,0,0.00
2012-3-3,-200,0,200,-100,-100,-100,0,0,100,29.74,29.44,0,0,0,0.00
2012-3-4,-200,0,200,-100,-100,-100,0,0,100,29.97,29.74,0,0,0,0.00
2012-3-5,-200,0,200,-100,-100,-100,0,0,100,30.18,29.97,0,0,0,0.00
2012-3-6,-200,0,200,-100,-100,-100,0,0,100,30.06,29.68,0,0,0,0.00
2012-3-7,52,32,35,49,-6,-100,96,49,49,29.74,29.59,0,0,0,0.00
2012-3-8,35,30,24,32,16,5,87,55,36,30.09,29.74,0,0,0,0.00
2012-3-9,29,22,15,5,2,-2,49,41,32,30.47,30.09,0,0,0,0.00
2012-5-20,-200,0,200,-100,-100,-100,0,0,100,30.06,29.94,0,0,0,0.00
2012-5-21,70,50,42,41,15,-100,90,39,23,30.18,30.06,0,0,0,0.00
2012-5-22,77,59,37,39,33,29,84,43,21,30.15,29.88,0,0,0,0.00
2012-5-23,69,22,48,39,-45,-100,57,20,33,29.91,29.65,0,0,0,0.00
2012-5-24,62,3,62,59,-92,-100,89,4,87,29.68,29.38,0,0,0,0.00
2012-5-25,74,62,51,59,44,36,89,57,28,30.12,29.59,0,0,0,0.00
2012-5-26,71,60,53,60,52,43,92,77,39,30.21,29.91,0,0,0,0.08
2012-5-27,60,14,56,58,-64,-100,93,21,88,30.09,29.74,1,0,0,0.31
2012-5-28,80,19,65,52,-62,-100,54,11,34,29.77,29.62,0,0,0,0.00
2012-5-29,65,60,55,48,38,-100,75,48,33,29.83,29.74,0,0,0,0.00
2012-5-30,57,48,48,43,24,-100,81,48,36,30.00,29.83,0,0,0,0.00
2012-5-31,-200,0,200,-100,-100,-100,0,0,100,30.06,29.97,0,0,0,0.00
2012-6-1,61,14,46,38,-66,-100,73,12,32,29.97,29.74,0,0,0,0.00
2012-6-2,76,59,39,38,33,-100,88,45,21,29.74,29.65,0,0,0,0.00
2012-6-3,79,62,52,42,29,-100,61,35,21,29.88,29.74,0,0,0,0.00
2012-6-4,-200,0,200,-100,-100,-100,0,0,100,29.97,29.85,0,0,0,0.00
2012-6-5,75,28,55,52,-35,-100,87,25,36,30.09,29.97,0,0,0,0.00
2012-6-6,80,62,44,51,41,33,93,54,21,30.15,30.06,0,0,0,0.00
2012-6-7,83,51,45,52,13,-100,90,43,24,30.15,30.03,0,0,0,0.00
2012-6-8,-200,0,200,-100,-100,-100,0,0,100,30.03,29.83,0,0,0,0.00
2012-6-9,90,58,67,50,6,-100,49,23,20,29.85,29.77,0,0,0,0.00
2012-6-10,90,77,62,52,47,43,62,36,20,29.91,29.80,0,0,0,0.00
2012-6-11,74,18,70,54,-63,-100,55,11,36,29.85,29.74,0,0,0,0.00
2012-6-12,68,13,47,38,-70,-100,70,10,25,30.15,29.85,0,0,0,0.00
2012-6-13,79,60,41,47,36,-100,91,49,21,30.21,30.06,0,0,0,0.00
2012-6-14,69,59,52,55,38,-100,82,52,35,30.15,29.97,0,0,0,0.00
2012-6-15,-200,0,200,-100,-100,-100,0,0,100,30.03,29.94,0,0,0,0.00
2012-6-16,79,38,68,67,-13,-100,88,40,35,30.03,29.80,0,0,0,0.00
2012-6-17,80,68,59,63,49,40,90,56,24,29.88,29.71,0,0,0,0.00
2012-6-18,83,36,63,66,-16,-100,89,39,42,29.74,29.53,0,0,0,0.00
2012-6-19,-200,0,200,-100,-100,-100,0,0,100,29.91,29.74,0,0,0,0.08
2012-6-20,91,72,66,65,44,-100,90,49,30,29.85,29.74,0,0,0,0.04
2012-6-21,76,67,61,63,55,44,90,69,34,29.91,29.80,0,0,0,0.00
2012-6-22,-200,0,200,-100,-100,-100,0,0,100,30.03,29.97,0,0,0,0.00
2012-6-23,74,19,64,60,-57,-100,85,18,48,30.03,29.97,0,0,0,0.00
2012-6-24,79,69,59,63,53,34,90,61,34,30.12,29.97,0,0,0,0.00
2012-6-25,75,51,47,40,11,-100,73,34,26,30.21,30.09,0,0,0,0.00
2012-6-26,-200,0,200,-100,-100,-100,0,0,100,30.12,29.91,0,0,0,0.00
2012-6-27,93,53,71,64,-3,-100,76,24,27,29.91,29.74,0,0,0,0.00
2012-6-28,85,75,64,67,58,47,89,60,28,29.88,29.74,0,0,0,0.00
2012-6-29,74,26,58,55,-37,-100,79,29,41,29.91,29.80,0,0,0,0.00
2012-6-30,-200,0,200,-100,-100,-100,0,0,100,29.88,29.80,0,0,0,0.00
2012-7-1,91,82,69,62,56,47,75,45,23,29.97,29.94,0,0,0,0.00
2012-7-2,95,61,63,63,32,-100,80,51,30,29.97,29.85,0,0,0,0.00
2012-7-3,-200,0,200,-100,-100,-100,0,0,100,29.97,29.77,0,0,0,0.00
2012-7-4,97,49,77,74,-7,-100,79,28,30,29.91,29.80,0,0,0,0.00
2012-7-5,96,82,71,70,65,59,81,58,35,29.97,29.85,0,0,0,0.00
2012-7-6,75,26,63,64,-39,-100,89,30,48,30.03,29.88,0,0,0,0.00
2012-7-7,78,12,66,58,-74,-100,70,10,38,30.12,29.91,0,0,0,0.00
2012-7-8,87,71,60,60,51,-100,85,57,26,30.15,30.06,0,0,0,0.00
2012-7-9,84,59,57,59,25,-100,87,46,22,30.15,30.06,0,0,0,0.00
2012-7-10,-200,0,200,-100,-100,-100,0,0,100,30.21,30.12,0,0,0,0.00
2012-7-11,91,44,64,48,-22,-100,57,16,18,30.21,30.09,0,0,0,0.00
2012-7-12,92,72,55,54,48,42,82,48,18,30.15,30.03,0,0,0,0.00
2012-7-13,79,27,58,54,-35,-100,79,28,38,30.09,29.97,0,0,0,0.00
2012-7-14,-200,0,200,-100,-100,-100,0,0,100,30.03,30.00,0,0,0,0.00
2012-7-26,82,74,66,60,55,47,69,53,31,29.80,29.74,0,0,0,0.00
2012-7-27,71,54,63,62,33,-100,89,68,58,30.06,29.80,0,0,0,0.00
2012-7-28,-200,0,200,-100,-100,-100,0,0,100,30.18,30.06,0,0,0,0.00
2012-7-29,81,50,60,65,14,-100,90,53,42,30.09,29.97,0,0,0,0.00
2012-7-30,91,73,61,67,58,53,89,64,29,30.00,29.83,0,0,0,0.00
2012-7-31,68,18,61,59,-56,-100,90,22,64,30.00,29.91,0,0,0,0.00
2012-8-1,78,14,70,62,-70,-100,73,11,46,30.00,29.83,0,0,0,0.00
2012-8-2,91,78,68,62,54,-100,76,50,21,29.91,29.80,0,0,0,0.00
2012-8-3,87,63,64,63,36,-100,89,56,31,29.97,29.88,0,0,0,0.00
2012-8-4,-200,0,200,-100,-100,-100,0,0,100,30.00,29.83,0,0,0,0.00
2012-8-5,77,43,56,46,-13,-100,66,22,24,30.15,29.88,0,0,0,0.00
2012-8-6,85,67,48,52,44,41,84,50,22,30.15,29.97,0,0,0,0.00
2012-8-7,78,29,58,57,-30,-100,79,31,44,30.03,29.94,0,0,0,0.00
2012-8-8,61,3,60,58,-93,-100,90,4,90,30.06,30.03,0,0,0,0.00
2012-8-9,65,60,58,57,56,53,90,85,65,30.03,29.97,0,0,0,0.00
2012-8-10,72,63,54,56,45,35,89,57,27,30.09,30.00,0,0,0,0.00
2012-8-11,54,11,48,47,-68,-100,88,18,77,30.06,29.97,0,0,0,0.00
2012-8-12,67,11,61,54,-73,-100,77,12,50,30.03,29.97,0,0,0,0.00
2012-8-13,83,68,59,57,50,41,84,59,23,30.00,29.91,0,0,0,0.00
2012-8-14,78,59,55,55,32,-100,91,52,26,29.97,29.91,0,0,0,0.00
2012-8-15,-200,0,200,-100,-100,-100,0,0,100,29.94,29.80,0,0,0,0.00
2012-8-16,71,37,59,60,-18,-100,88,28,37,29.94,29.71,0,0,0,0.00
2012-8-17,71,60,48,48,39,31,87,51,24,30.03,29.94,0,0,0,0.00
2012-8-18,76,36,42,48,-9,-100,85,39,26,30.03,29.94,0,0,0,0.00
2012-8-19,-200,0,200,-100,-100,-100,0,0,100,30.00,29.94,0,0,0,0.00
2012-8-20,75,46,45,43,-2,-100,81,29,24,30.03,29.97,0,0,0,0.00
2012-8-21,83,64,47,49,41,36,82,51,21,30.09,30.00,0,0,0,0.00
2012-8-22,72,41,47,50,12,-100,86,57,34,30.06,30.03,0,0,0,0.00
2012-8-26,-200,0,200,-100,-100,-100,0,0,100,30.03,29.97,0,0,0,0.00
2012-8-27,83,31,62,52,-40,-100,71,15,26,30.12,30.00,0,0,0,0.00
2012-8-28,79,62,52,59,51,45,90,72,31,30.18,30.12,0,0,0,0.00
2012-9-3,86,45,69,61,-11,-100,57,27,39,29.97,29.88,0,0,0,0.00
2012-9-4,91,14,63,56,-71,-100,78,10,26,29.91,29.80,0,0,0,0.00
2012-9-5,80,39,21,56,-19,-100,81,26,30,29.85,29.80,0,0,0,0.00
2012-9-6,58,15,56,53,-59,-100,82,22,80,29.88,29.85,0,0,0,0.00
2012-9-18,37,35,33,26,26,25,74,68,63,29.97,29.97,0,0,0,0.00
2012-9-19,33,4,30,26,-84,-100,82,10,74,29.97,29.65,0,0,0,0.00
2012-9-20,59,18,39,34,-52,-100,81,19,37,29.88,29.77,0,0,0,0.00
2012-9-21,58,47,37,42,37,31,87,69,38,29.85,29.77,0,0,0,0.00
2012-9-22,56,34,35,39,-5,-100,89,39,29,30.15,29.74,0,0,0,0.00
2012-9-23,38,36,34,30,29,27,80,76,68,30.15,30.15,0,0,0,0.00
2012-10-5,38,37,36,17,16,16,46,42,40,30.00,29.97,0,0,0,0.00
2012-10-6,37,36,34,25,21,18,66,56,46,30.00,29.94,0,0,0,0.00
2012-10-7,-200,0,200,-100,-100,-100,0,0,100,30.12,30.00,0,0,0,0.00
2012-10-19,49,33,43,39,-2,-100,86,51,60,29.62,29.50,0,0,0,0.00
2012-10-25,61,2,58,57,-94,-100,86,3,86,30.00,29.53,0,0,0,0.16
2012-10-26,40,31,30,24,7,-100,73,47,40,30.30,30.00,0,0,0,0.16
2012-10-27,42,33,26,20,14,9,70,47,29,30.33,30.27,0,0,0,0.00
2012-10-28,47,32,21,25,17,10,89,58,28,30.36,30.30,0,0,0,0.00
2012-10-29,47,34,21,23,17,15,88,56,29,30.36,30.18,0,0,0,0.00
2012-10-30,44,25,29,23,-16,-100,76,36,30,30.18,29.88,0,0,0,0.00
2012-10-31,-200,0,200,-100,-100,-100,0,0,100,29.88,29.83,0,0,0,0.00
2012-11-1,-200,0,200,-100,-100,-100,0,0,100,29.94,29.80,0,0,0,0.00
2012-11-2,31,4,27,14,-86,-100,57,6,44,30.18,29.94,0,0,0,0.00
2012-11-3,42,29,22,19,16,13,80,59,39,30.21,30.18,0,0,0,0.00
2012-11-4,45,28,17,24,17,15,92,68,36,30.24,30.15,0,0,0,0.00
2012-11-5,38,26,17,23,16,14,90,68,42,30.24,30.03,0,0,0,0.00
2012-11-6,34,27,22,31,8,-100,93,73,77,30.06,29.80,0,0,0,0.00
2012-11-7,40,16,34,31,-43,-100,88,33,66,30.12,29.88,0,0,0,0.00
2012-11-8,50,38,30,34,29,25,90,71,41,30.09,29.97,0,0,0,0.00
2012-11-9,36,11,27,34,-52,-100,94,34,86,30.09,30.03,0,0,0,0.00
2012-11-10,-200,0,200,-100,-100,-100,0,0,100,30.09,29.71,0,0,0,0.00
2012-11-11,52,15,27,48,-48,-100,90,33,76,29.83,29.62,0,0,0,0.00
2012-11-12,27,24,21,19,9,4,71,54,43,29.94,29.83,0,0,0,0.00
2012-11-16,-200,0,200,-100,-100,-100,0,0,100,30.42,30.42,0,0,0,0.00
2012-11-17,39,9,36,31,-68,-100,78,19,70,30.42,30.36,0,0,0,0.00
2012-11-18,57,41,28,33,25,21,90,58,31,30.36,30.21,0,0,0,0.00
2012-11-19,50,42,33,32,28,23,72,58,43,30.21,30.03,0,0,0,0.00
2012-11-20,58,39,33,38,20,-100,91,63,37,30.12,30.03,0,0,0,0.00
2012-11-21,-200,0,200,-100,-100,-100,0,0,100,30.12,29.88,0,0,0,0.00
2012-11-22,43,4,31,28,-88,-100,69,6,55,29.88,29.59,0,0,0,0.00